Time;durP1;ratioP1;P1;durP2;ratioP2;P2;SDS_P1;SDS_P2;PMS_P1;PMS_P2;Temp;Humidity;BMP_temperature;BMP_pressure;BME280_temperature;BME280_humidity;BME280_pressure;Samples;Min_cycle;Max_cycle;Signal;HPM_P1;HPM_P2
2021/06/15 00:00:05;;;;;;;6.88;4.70;;;;;;;27.81;35.05;101653.66;5037171;28;20053;-60
2021/06/15 00:02:30;;;;;;;11.00;4.97;;;;;;;27.78;35.85;101643.06;5038296;28;20052;-60
2021/06/15 00:04:56;;;;;;;19.27;5.35;;;;;;;27.76;35.73;101642.47;5037424;28;20067;-59
2021/06/15 00:07:21;;;;;;;7.22;4.38;;;;;;;27.79;35.61;101643.94;5054957;28;20389;-59
2021/06/15 00:09:46;;;;;;;7.85;5.40;;;;;;;27.79;35.77;101647.53;5055040;28;20036;-60
2021/06/15 00:12:13;;;;;;;9.90;5.78;;;;;;;27.75;36.00;101647.13;5037072;28;20036;-60
2021/06/15 00:14:38;;;;;;;11.07;6.15;;;;;;;27.77;36.44;101646.91;5054845;28;20029;-60
2021/06/15 00:17:04;;;;;;;10.30;5.15;;;;;;;27.71;35.90;101634.03;5055399;28;20025;-60
2021/06/15 00:19:30;;;;;;;13.73;6.60;;;;;;;27.68;36.24;101642.72;5053594;28;20039;-59
2021/06/15 00:21:55;;;;;;;8.52;5.70;;;;;;;27.59;36.29;101641.28;5055637;28;20029;-59
2021/06/15 00:24:20;;;;;;;13.38;5.75;;;;;;;27.61;36.53;101647.44;5055077;28;20120;-60
2021/06/15 00:26:46;;;;;;;11.48;6.32;;;;;;;27.60;36.70;101643.00;5037152;28;20021;-59
2021/06/15 00:29:11;;;;;;;15.27;6.95;;;;;;;27.61;36.49;101644.69;5036996;28;20377;-60
2021/06/15 00:31:36;;;;;;;12.23;7.00;;;;;;;27.62;36.41;101652.72;5054632;28;20162;-59
2021/06/15 00:34:02;;;;;;;14.15;7.22;;;;;;;27.62;36.54;101649.97;5054522;28;20040;-59
2021/06/15 00:36:27;;;;;;;16.88;7.13;;;;;;;27.64;36.95;101660.75;5036954;28;20033;-59
2021/06/15 00:38:53;;;;;;;10.80;6.80;;;;;;;27.64;37.16;101650.59;5036590;28;20053;-60
2021/06/15 00:41:18;;;;;;;12.80;7.15;;;;;;;27.65;36.79;101648.69;5054700;28;20036;-60
2021/06/15 00:43:43;;;;;;;10.70;6.03;;;;;;;27.66;37.10;101655.88;5054413;28;20389;-59
2021/06/15 00:46:09;;;;;;;11.88;6.10;;;;;;;27.65;37.07;101652.28;5054373;28;20044;-60
2021/06/15 00:48:35;;;;;;;12.73;6.88;;;;;;;27.60;37.21;101665.03;5054522;28;20045;-59
2021/06/15 00:51:02;;;;;;;13.50;6.15;;;;;;;27.53;36.91;101653.19;5054299;28;20040;-59
2021/06/15 00:53:30;;;;;;;10.63;5.97;;;;;;;27.40;37.09;101658.75;5054396;28;20033;-60
2021/06/15 00:55:55;;;;;;;12.68;5.30;;;;;;;27.33;37.19;101664.25;5054251;28;20036;-59
2021/06/15 00:58:21;;;;;;;8.75;5.40;;;;;;;27.23;37.10;101657.53;5054353;28;20021;-60
2021/06/15 01:00:48;;;;;;;13.48;5.05;;;;;;;27.11;37.71;101660.97;5036131;28;20512;-60
2021/06/15 01:03:13;;;;;;;8.95;4.65;;;;;;;27.03;37.94;101657.63;5036194;28;20453;-59
2021/06/15 01:05:40;;;;;;;10.40;5.20;;;;;;;26.93;38.00;101655.34;5036759;28;20032;-60
2021/06/15 01:08:31;;;;;;;13.50;5.90;;;;;;;26.82;38.28;101660.66;5053910;28;20024;-60
2021/06/15 01:11:11;;;;;;;9.40;5.03;;;;;;;26.75;38.44;101659.78;5054101;28;20021;-59
2021/06/15 01:13:42;;;;;;;9.68;4.78;;;;;;;26.65;38.43;101665.75;5054119;28;20049;-59
2021/06/15 01:16:26;;;;;;;10.50;5.15;;;;;;;26.56;38.48;101661.50;5035773;28;20033;-59
2021/06/15 01:18:54;;;;;;;9.68;5.30;;;;;;;26.46;38.51;101653.72;5053992;28;20108;-60
2021/06/15 01:21:20;;;;;;;8.73;5.40;;;;;;;26.39;38.42;101665.75;5035869;28;20126;-59
2021/06/15 01:23:48;;;;;;;8.95;5.25;;;;;;;26.33;38.58;101661.97;5019369;28;20036;-59
2021/06/15 01:26:32;;;;;;;13.32;4.97;;;;;;;26.20;38.98;101652.88;5054400;28;20025;-60
2021/06/15 01:29:00;;;;;;;6.75;4.80;;;;;;;26.17;38.88;101654.16;5054004;28;20029;-60
2021/06/15 01:31:26;;;;;;;7.43;4.65;;;;;;;26.13;39.14;101657.50;5054092;28;20025;-59
2021/06/15 01:33:59;;;;;;;13.88;5.97;;;;;;;26.04;39.27;101652.22;5036132;28;20032;-60
2021/06/15 01:36:34;;;;;;;14.77;6.25;;;;;;;25.98;39.18;101655.81;5035908;28;20108;-58
2021/06/15 01:39:06;;;;;;;10.90;6.32;;;;;;;25.92;39.40;101653.91;5053726;28;20107;-59
2021/06/15 01:41:34;;;;;;;7.27;4.87;;;;;;;25.89;39.39;101653.47;5035693;28;20017;-60
2021/06/15 01:44:11;;;;;;;8.77;5.10;;;;;;;25.86;39.68;101659.38;5053628;28;20063;-58
2021/06/15 01:46:41;;;;;;;9.85;5.60;;;;;;;25.83;39.43;101659.78;5035598;28;20021;-60
2021/06/15 01:49:10;;;;;;;10.48;5.82;;;;;;;25.80;39.77;101663.78;5036250;28;20034;-59
2021/06/15 01:51:37;;;;;;;10.27;6.18;;;;;;;25.73;39.76;101651.97;5036319;28;20025;-59
2021/06/15 01:54:11;;;;;;;11.60;5.82;;;;;;;25.70;39.92;101655.13;5035554;28;20390;-59
2021/06/15 01:56:41;;;;;;;9.75;6.18;;;;;;;25.65;39.82;101668.63;5036521;28;20025;-60
2021/06/15 01:59:12;;;;;;;11.95;6.03;;;;;;;25.61;40.00;101656.38;5035950;28;20527;-59
2021/06/15 02:01:40;;;;;;;12.07;6.05;;;;;;;25.56;40.21;101653.41;5051889;28;20049;-59
2021/06/15 02:04:06;;;;;;;14.52;6.80;;;;;;;25.52;40.58;101652.09;5035917;28;20112;-59
2021/06/15 02:06:32;;;;;;;10.82;5.80;;;;;;;25.46;40.19;101652.94;5035647;28;20509;-59
2021/06/15 02:08:59;;;;;;;15.80;6.05;;;;;;;25.41;39.72;101650.78;5039236;28;20036;-59
2021/06/15 02:11:27;;;;;;;9.60;6.13;;;;;;;25.37;40.48;101654.16;5039727;28;20028;-59
2021/06/15 02:13:53;;;;;;;14.50;6.00;;;;;;;25.34;40.68;101654.56;5039418;28;20424;-59
2021/06/15 02:16:20;;;;;;;12.10;6.82;;;;;;;25.31;40.68;101660.47;5039259;28;20090;-59
2021/06/15 02:18:51;;;;;;;12.73;6.10;;;;;;;25.28;40.79;101660.88;5039561;28;20037;-59
2021/06/15 02:21:17;;;;;;;12.15;6.45;;;;;;;25.25;40.70;101650.31;5039982;28;20028;-59
2021/06/15 02:23:44;;;;;;;10.68;6.28;;;;;;;25.22;41.18;101650.72;5039238;28;20043;-60
2021/06/15 02:26:12;;;;;;;11.35;6.50;;;;;;;25.18;40.50;101646.69;5039459;28;20412;-59
2021/06/15 02:28:38;;;;;;;13.10;6.75;;;;;;;25.15;40.81;101650.69;5022866;28;20021;-59
2021/06/15 02:31:05;;;;;;;15.75;7.00;;;;;;;25.12;41.48;101653.00;5056932;28;20427;-59
2021/06/15 02:33:39;;;;;;;11.57;6.38;;;;;;;25.08;40.70;101652.56;5057180;28;20052;-59
2021/06/15 02:36:18;;;;;;;14.52;7.22;;;;;;;25.05;41.21;101652.09;5039215;28;20017;-60
2021/06/15 02:38:49;;;;;;;13.93;7.50;;;;;;;25.03;41.60;101665.19;5056836;28;20404;-60
2021/06/15 02:41:15;;;;;;;12.77;7.53;;;;;;;25.01;41.58;101670.03;5039464;28;20393;-59
2021/06/15 02:43:41;;;;;;;14.50;8.20;;;;;;;25.00;41.20;101666.44;5039187;28;20103;-59
2021/06/15 02:46:08;;;;;;;16.23;9.60;;;;;;;25.01;41.58;101672.78;5039287;28;20373;-59
2021/06/15 02:48:36;;;;;;;24.73;10.80;;;;;;;25.09;41.58;101678.09;5038961;28;20036;-60
2021/06/15 02:51:03;;;;;;;31.38;11.45;;;;;;;25.15;42.34;101677.28;5039002;28;20362;-59
2021/06/15 02:53:36;;;;;;;16.65;10.90;;;;;;;25.22;41.96;101668.03;5039777;28;20107;-59
2021/06/15 02:56:09;;;;;;;19.90;10.93;;;;;;;25.19;41.67;101648.38;5038874;28;20075;-59
2021/06/15 02:58:34;;;;;;;20.92;11.43;;;;;;;25.38;41.75;101675.03;5056941;28;20025;-59
2021/06/15 03:01:00;;;;;;;19.98;11.60;;;;;;;25.43;42.05;101675.28;5056337;28;20045;-60
2021/06/15 03:03:25;;;;;;;21.25;11.65;;;;;;;25.49;42.20;101674.47;5038526;28;20053;-59
2021/06/15 03:05:50;;;;;;;26.40;10.85;;;;;;;25.55;41.97;101683.78;5056540;28;20378;-60
2021/06/15 03:08:16;;;;;;;19.77;10.50;;;;;;;25.59;41.61;101685.91;5056201;28;20020;-59
2021/06/15 03:10:41;;;;;;;18.90;12.05;;;;;;;25.61;42.24;101688.44;5021701;28;20040;-60
2021/06/15 03:13:14;;;;;;;21.40;10.48;;;;;;;25.59;42.57;101674.94;5056139;28;20028;-60
2021/06/15 03:15:44;;;;;;;19.92;11.52;;;;;;;25.62;42.55;101685.50;5056107;28;20094;-59
2021/06/15 03:18:39;;;;;;;20.98;10.70;;;;;;;25.61;42.49;101681.06;5055924;28;20017;-59
2021/06/15 03:21:13;;;;;;;22.77;11.55;;;;;;;25.60;42.37;101687.59;5056354;28;20028;-60
2021/06/15 03:23:51;;;;;;;18.75;11.73;;;;;;;25.64;42.82;101688.03;5038362;28;20033;-59
2021/06/15 03:26:44;;;;;;;18.52;12.40;;;;;;;25.63;42.30;101681.69;5056007;28;20021;-59
2021/06/15 03:29:12;;;;;;;20.00;11.00;;;;;;;25.63;42.17;101687.19;5038247;28;20029;-59
2021/06/15 03:31:41;;;;;;;19.38;11.52;;;;;;;25.67;42.75;101688.47;5038116;28;20036;-60
2021/06/15 03:34:08;;;;;;;22.25;12.15;;;;;;;25.66;43.09;101686.78;5038185;28;20416;-60
2021/06/15 03:36:36;;;;;;;21.98;12.57;;;;;;;25.65;42.62;101693.34;5038160;28;20032;-59
2021/06/15 03:39:02;;;;;;;20.60;12.48;;;;;;;25.64;42.50;101688.88;5021188;28;20040;-59
2021/06/15 03:41:28;;;;;;;22.90;12.85;;;;;;;25.64;43.38;101696.28;5038195;28;20423;-59
2021/06/15 03:43:56;;;;;;;21.17;12.45;;;;;;;25.64;42.72;101693.53;5038215;28;20029;-59
2021/06/15 03:46:23;;;;;;;21.35;12.32;;;;;;;25.66;43.47;101695.00;5037771;28;20138;-59
2021/06/15 03:48:50;;;;;;;22.48;12.70;;;;;;;25.66;42.86;101688.66;5037856;28;20053;-59
2021/06/15 03:51:29;;;;;;;22.55;12.50;;;;;;;25.69;43.16;101691.84;5037549;28;20035;-59
2021/06/15 03:54:06;;;;;;;18.13;12.00;;;;;;;25.70;43.11;101692.69;5037956;28;20056;-59
2021/06/15 03:56:34;;;;;;;28.38;13.65;;;;;;;25.70;43.11;101706.44;5039379;28;20090;-59
2021/06/15 03:59:00;;;;;;;21.80;12.63;;;;;;;25.72;43.69;101698.81;5037870;28;20033;-59
2021/06/15 04:01:26;;;;;;;25.42;12.75;;;;;;;25.73;43.50;101704.13;5055305;28;20068;-59
2021/06/15 04:03:52;;;;;;;24.88;12.32;;;;;;;25.74;42.89;101713.22;5038039;28;20129;-60
2021/06/15 04:06:18;;;;;;;22.55;12.60;;;;;;;25.76;42.96;101716.59;5037521;28;20025;-60
2021/06/15 04:08:44;;;;;;;18.60;12.00;;;;;;;25.77;43.52;101727.34;5020762;28;20067;-60
2021/06/15 04:11:11;;;;;;;23.70;11.98;;;;;;;25.76;43.71;101722.94;5038049;28;20156;-59
2021/06/15 04:13:40;;;;;;;24.48;12.90;;;;;;;25.74;43.80;101716.78;5037611;28;20025;-60
2021/06/15 04:16:06;;;;;;;20.17;12.77;;;;;;;25.74;43.37;101726.94;5055235;28;20036;-59
2021/06/15 04:18:35;;;;;;;21.20;12.13;;;;;;;25.76;43.78;101725.69;5037450;28;20381;-59
2021/06/15 04:21:03;;;;;;;18.95;12.10;;;;;;;25.76;44.24;101720.19;5037190;28;20033;-59
2021/06/15 04:23:37;;;;;;;20.02;13.18;;;;;;;25.74;43.41;101726.94;5055401;28;20070;-60
2021/06/15 04:26:02;;;;;;;15.90;11.32;;;;;;;25.80;43.83;101732.44;5055416;28;20357;-59
2021/06/15 04:28:29;;;;;;;24.15;12.57;;;;;;;25.86;43.82;101739.00;5053900;28;20029;-59
2021/06/15 04:30:55;;;;;;;19.38;12.90;;;;;;;25.86;43.63;101739.84;5036499;28;20036;-60
2021/06/15 04:33:25;;;;;;;22.02;11.82;;;;;;;25.88;43.73;101737.72;5037165;28;20072;-59
2021/06/15 04:35:53;;;;;;;20.13;11.57;;;;;;;25.91;43.72;101734.56;5020976;28;20104;-60
2021/06/15 04:38:30;;;;;;;18.52;11.25;;;;;;;25.94;43.79;101739.66;5037054;28;20016;-59
2021/06/15 04:41:01;;;;;;;18.40;11.05;;;;;;;25.96;43.72;101745.78;5037284;28;20027;-59
2021/06/15 04:43:37;;;;;;;19.58;11.25;;;;;;;26.00;44.14;101741.56;5037041;28;20155;-59
2021/06/15 04:46:14;;;;;;;21.20;11.02;;;;;;;26.01;43.63;101746.00;5036944;28;20025;-59
2021/06/15 04:48:41;;;;;;;17.65;10.02;;;;;;;26.00;43.78;101743.47;5054482;28;20048;-58
2021/06/15 04:51:08;;;;;;;16.02;10.27;;;;;;;26.08;43.66;101739.66;5037074;28;20112;-59
2021/06/15 04:53:39;;;;;;;16.80;10.65;;;;;;;26.16;44.17;101725.78;5036739;28;20025;-60
2021/06/15 04:56:06;;;;;;;18.25;10.70;;;;;;;26.19;43.78;101728.09;5036509;28;20029;-59
2021/06/15 04:58:32;;;;;;;18.00;10.10;;;;;;;26.25;44.00;101727.25;5054285;28;20108;-59
2021/06/15 05:01:00;;;;;;;17.38;10.32;;;;;;;26.34;43.63;101734.25;5036271;28;20045;-60
2021/06/15 05:03:27;;;;;;;15.63;9.82;;;;;;;26.43;43.41;101742.09;5054358;28;20083;-60
2021/06/15 05:05:53;;;;;;;19.10;10.05;;;;;;;26.52;43.41;101739.97;5036571;28;20033;-60
2021/06/15 05:08:23;;;;;;;18.20;10.23;;;;;;;26.51;43.52;101739.13;5053920;28;20075;-59
2021/06/15 05:10:49;;;;;;;14.90;9.30;;;;;;;26.57;43.38;101745.69;5036704;28;20031;-59
2021/06/15 05:13:16;;;;;;;15.68;9.38;;;;;;;26.61;43.42;101741.44;5054342;28;20405;-60
2021/06/15 05:15:44;;;;;;;21.65;9.90;;;;;;;26.68;43.34;101741.44;5019936;28;20033;-59
2021/06/15 05:18:10;;;;;;;15.82;9.88;;;;;;;26.74;43.10;101738.69;5036758;28;20116;-59
2021/06/15 05:20:36;;;;;;;24.77;10.32;;;;;;;26.79;43.39;101738.94;5036572;28;20489;-60
2021/06/15 05:23:08;;;;;;;18.50;9.75;;;;;;;26.83;43.08;101740.19;5036198;28;20086;-59
2021/06/15 05:25:33;;;;;;;;;;;;;;;26.87;42.54;101749.72;5036378;28;20070;-59
2021/06/15 05:28:00;;;;;;;14.98;9.13;;;;;;;26.89;43.05;101747.56;5053628;28;20011;-60
2021/06/15 05:30:25;;;;;;;16.63;9.55;;;;;;;26.97;42.96;101739.09;5035772;28;20485;-59
2021/06/15 05:32:51;;;;;;;20.33;9.10;;;;;;;27.10;42.75;101738.25;5053544;28;20043;-59
2021/06/15 05:35:16;;;;;;;16.13;9.30;;;;;;;27.14;42.63;101731.22;5053720;28;20104;-59
2021/06/15 05:37:43;;;;;;;13.10;8.90;;;;;;;27.16;42.83;101742.88;5054004;28;20029;-59
2021/06/15 05:40:11;;;;;;;14.45;8.93;;;;;;;27.15;42.64;101738.44;5035692;28;20029;-60
2021/06/15 05:42:36;;;;;;;19.75;9.30;;;;;;;27.22;42.38;101750.25;5035996;28;20474;-59
2021/06/15 05:45:03;;;;;;;16.38;9.65;;;;;;;27.33;42.38;101752.34;5053368;28;20029;-60
2021/06/15 05:47:29;;;;;;;19.05;9.60;;;;;;;27.47;42.33;101753.19;5053476;28;20025;-60
2021/06/15 05:49:55;;;;;;;17.95;9.02;;;;;;;27.57;42.66;101750.81;5053597;28;20041;-59
2021/06/15 05:52:20;;;;;;;16.65;9.82;;;;;;;27.69;42.26;101754.56;5053560;28;20557;-59
2021/06/15 05:54:46;;;;;;;15.38;9.13;;;;;;;27.80;42.43;101751.13;5019108;28;20425;-59
2021/06/15 05:57:12;;;;;;;16.60;8.82;;;;;;;27.91;42.22;101753.19;5035515;28;20119;-59
2021/06/15 05:59:37;;;;;;;14.98;9.35;;;;;;;28.08;41.34;101757.16;5053593;28;20025;-59
2021/06/15 06:02:03;;;;;;;16.30;9.15;;;;;;;28.36;41.67;101765.00;5053053;28;20499;-60
2021/06/15 06:04:34;;;;;;;16.83;9.35;;;;;;;28.59;41.77;101761.63;5053657;28;20025;-60
2021/06/15 06:09:43;;;;;;;15.45;8.18;;;;;;;28.88;40.67;101758.22;5053574;28;20036;-60
2021/06/15 06:12:09;;;;;;;11.90;7.85;;;;;;;29.09;41.29;101766.06;5053493;28;20033;-60
2021/06/15 06:14:35;;;;;;;11.57;8.15;;;;;;;29.27;40.62;101774.41;5035344;28;20029;-60
2021/06/15 06:17:02;;;;;;;14.30;8.50;;;;;;;29.43;40.67;101782.06;5053377;28;20435;-59
2021/06/15 06:19:27;;;;;;;15.07;8.13;;;;;;;29.55;39.69;101773.03;5035344;28;20052;-60
2021/06/15 06:21:54;;;;;;;12.90;8.25;;;;;;;29.66;40.13;101775.00;5035607;28;20079;-60
2021/06/15 06:24:19;;;;;;;17.58;7.80;;;;;;;29.79;40.25;101777.59;5053344;28;20035;-60
2021/06/15 06:26:48;;;;;;;12.85;7.50;;;;;;;29.93;39.71;101781.91;5052991;28;20025;-59
2021/06/15 06:29:13;;;;;;;12.98;8.27;;;;;;;30.13;39.21;101779.69;5035867;28;20024;-59
2021/06/15 06:31:39;;;;;;;15.85;7.43;;;;;;;30.19;39.62;101778.78;5053142;28;20116;-60
2021/06/15 06:34:04;;;;;;;16.42;7.28;;;;;;;30.42;39.46;101798.25;5053086;28;20074;-59
2021/06/15 06:36:30;;;;;;;14.02;8.25;;;;;;;30.61;38.47;101787.94;5053353;28;20033;-59
2021/06/15 06:38:55;;;;;;;12.45;8.07;;;;;;;30.78;38.50;101797.22;5053041;28;20039;-59
2021/06/15 06:41:24;;;;;;;16.60;7.47;;;;;;;30.97;38.30;101789.66;5053342;28;20108;-60
2021/06/15 06:43:49;;;;;;;13.60;8.25;;;;;;;31.12;38.16;101790.88;5053300;28;20048;-60
2021/06/15 06:46:15;;;;;;;16.90;8.27;;;;;;;31.27;37.99;101782.06;5053006;28;20060;-59
2021/06/15 06:48:41;;;;;;;14.57;8.68;;;;;;;31.46;38.28;101794.72;5052996;28;20396;-60
2021/06/15 06:51:06;;;;;;;13.93;7.30;;;;;;;31.60;38.08;101793.34;5052918;28;20042;-60
2021/06/15 06:53:32;;;;;;;15.20;8.55;;;;;;;31.80;37.45;101792.13;5053716;28;20029;-60
2021/06/15 06:55:58;;;;;;;13.93;7.85;;;;;;;31.98;37.49;101791.91;5039110;28;20102;-60
2021/06/15 06:58:24;;;;;;;16.67;8.48;;;;;;;32.11;37.30;101789.72;5039146;28;20449;-59
2021/06/15 07:00:49;;;;;;;14.88;8.35;;;;;;;32.28;37.65;101798.06;5056647;28;20476;-59
2021/06/15 07:03:14;;;;;;;11.48;7.40;;;;;;;32.40;37.20;101787.78;5038609;28;20029;-60
2021/06/15 07:05:40;;;;;;;13.40;8.18;;;;;;;32.54;36.26;101794.72;5056775;28;20381;-59
2021/06/15 07:08:05;;;;;;;11.50;7.38;;;;;;;32.62;36.56;101791.53;5056702;28;20071;-59
2021/06/15 07:10:31;;;;;;;12.68;8.15;;;;;;;32.78;36.30;101785.13;5056933;28;20025;-60
2021/06/15 07:12:56;;;;;;;12.98;8.30;;;;;;;32.87;35.96;101787.47;5039393;28;20029;-60
2021/06/15 07:15:22;;;;;;;12.88;7.82;;;;;;;33.00;35.95;101787.13;5056260;28;20100;-59
2021/06/15 07:17:47;;;;;;;16.35;8.00;;;;;;;33.07;36.19;101794.22;5038738;28;20025;-60
2021/06/15 07:20:13;;;;;;;10.55;7.60;;;;;;;33.18;35.56;101789.66;5056511;28;20029;-60
2021/06/15 07:22:38;;;;;;;14.45;7.97;;;;;;;33.35;35.92;101794.09;5056174;28;20385;-59
2021/06/15 07:25:05;;;;;;;11.25;7.55;;;;;;;33.47;35.40;101787.56;5038257;28;20106;-59
2021/06/15 07:27:30;;;;;;;13.00;6.88;;;;;;;33.65;34.48;101802.00;5056334;28;20587;-59
2021/06/15 07:29:55;;;;;;;13.52;7.47;;;;;;;33.80;34.74;101785.53;5056066;28;20116;-60
2021/06/15 07:32:21;;;;;;;11.07;7.78;;;;;;;33.96;34.67;101792.94;5038736;28;20122;-60
2021/06/15 07:34:46;;;;;;;14.05;7.25;;;;;;;34.10;34.81;101795.34;5038110;28;20082;-60
2021/06/15 07:37:12;;;;;;;12.38;6.93;;;;;;;34.22;34.66;101790.47;5055825;28;20025;-60
2021/06/15 07:39:37;;;;;;;11.57;6.55;;;;;;;34.36;34.23;101794.50;5038101;28;20025;-60
2021/06/15 07:42:03;;;;;;;10.98;6.22;;;;;;;34.52;33.51;101796.31;5056004;28;20028;-60
2021/06/15 07:44:29;;;;;;;10.05;6.32;;;;;;;34.66;34.53;101797.59;5055812;28;20389;-59
2021/06/15 07:46:55;;;;;;;9.85;5.78;;;;;;;34.75;34.26;101795.16;5056011;28;20033;-60
2021/06/15 07:49:21;;;;;;;9.80;5.85;;;;;;;34.85;34.38;101807.22;5056057;28;20040;-60
2021/06/15 07:51:47;;;;;;;9.75;6.05;;;;;;;34.91;34.06;101792.22;5055949;28;20535;-59
2021/06/15 07:54:12;;;;;;;10.00;6.10;;;;;;;35.06;32.83;101802.66;5055867;28;20032;-60
2021/06/15 07:56:37;;;;;;;13.43;6.10;;;;;;;35.24;33.69;101810.59;5038290;28;20025;-59
2021/06/15 07:59:03;;;;;;;10.27;6.13;;;;;;;35.37;32.66;101799.00;5056025;28;20070;-59
2021/06/15 08:01:28;;;;;;;12.00;5.70;;;;;;;35.49;32.28;101801.53;5055332;28;20052;-60
2021/06/15 08:03:53;;;;;;;8.10;4.95;;;;;;;35.62;32.30;101806.66;5055675;28;20359;-58
2021/06/15 08:06:19;;;;;;;8.52;5.03;;;;;;;35.78;32.39;101793.59;5019893;28;20025;-58
2021/06/15 08:08:44;;;;;;;7.15;3.53;;;;;;;35.86;32.38;101785.56;5055313;28;20587;-57
2021/06/15 08:11:10;;;;;;;6.05;3.72;;;;;;;36.02;32.36;101790.09;5055600;28;20503;-58
2021/06/15 08:13:35;;;;;;;7.03;3.92;;;;;;;36.17;31.62;101797.66;5037422;28;20033;-58
2021/06/15 08:16:01;;;;;;;8.75;3.63;;;;;;;36.28;31.16;101792.94;5055360;28;20067;-58
2021/06/15 08:18:27;;;;;;;4.43;2.78;;;;;;;36.45;31.00;101790.72;5054216;28;20457;-57
2021/06/15 08:20:54;;;;;;;7.35;3.28;;;;;;;36.58;30.83;101787.41;5020855;28;20076;-57
2021/06/15 08:23:23;;;;;;;1.77;1.55;;;;;;;36.65;30.75;101797.19;5055305;28;20028;-58
2021/06/15 08:25:49;;;;;;;3.15;2.10;;;;;;;36.65;30.42;101787.97;5037253;28;20381;-58
2021/06/15 08:28:15;;;;;;;4.40;1.50;;;;;;;36.69;29.79;101786.28;5055205;28;20028;-61
2021/06/15 08:30:40;;;;;;;3.38;1.67;;;;;;;36.77;30.20;101792.16;5055454;28;20108;-59
2021/06/15 08:33:06;;;;;;;1.50;1.33;;;;;;;36.86;29.79;101784.03;5036924;28;20580;-60
2021/06/15 08:35:32;;;;;;;2.42;1.60;;;;;;;37.00;29.45;101785.16;5055196;28;20473;-60
2021/06/15 08:37:57;;;;;;;2.67;1.83;;;;;;;37.16;29.28;101778.41;5054774;28;20021;-60
2021/06/15 08:40:23;;;;;;;3.03;1.13;;;;;;;37.22;29.04;101774.50;5055167;28;20021;-60
2021/06/15 08:42:48;;;;;;;5.28;2.00;;;;;;;37.22;28.86;101782.88;5054789;28;20486;-60
2021/06/15 08:45:15;;;;;;;2.47;1.88;;;;;;;37.29;28.49;101777.00;5054935;28;20052;-60
2021/06/15 08:47:43;;;;;;;5.10;1.63;;;;;;;37.39;28.87;101764.94;5036697;28;20032;-58
2021/06/15 08:50:13;;;;;;;1.33;1.23;;;;;;;37.51;28.15;101776.69;5054728;28;20066;-58
2021/06/15 08:52:38;;;;;;;3.38;1.80;;;;;;;37.63;27.89;101782.78;5054817;28;20488;-58
2021/06/15 08:55:06;;;;;;;3.88;1.58;;;;;;;37.73;27.88;101777.97;5036698;28;20029;-58
2021/06/15 08:57:33;;;;;;;2.25;1.88;;;;;;;37.86;28.05;101770.91;5054640;28;20078;-57
2021/06/15 09:00:01;;;;;;;3.17;1.45;;;;;;;37.96;27.75;101773.69;5036580;28;20033;-58
2021/06/15 09:02:27;;;;;;;1.40;1.30;;;;;;;38.11;28.08;101770.78;5036738;28;20057;-58
2021/06/15 09:04:53;;;;;;;2.45;1.30;;;;;;;38.28;28.28;101773.19;5053527;28;20102;-58
2021/06/15 09:07:19;;;;;;;2.25;1.00;;;;;;;38.40;27.76;101782.94;5036592;28;20025;-58
2021/06/15 09:09:49;;;;;;;2.85;1.73;;;;;;;38.50;26.85;101775.59;5054442;28;20044;-58
2021/06/15 09:12:17;;;;;;;2.65;1.00;;;;;;;38.56;27.41;101771.63;5054267;28;20381;-58
2021/06/15 09:14:50;;;;;;;4.63;1.33;;;;;;;38.65;26.94;101773.47;5054297;28;20461;-58
2021/06/15 09:17:28;;;;;;;4.05;1.85;;;;;;;38.76;26.80;101779.81;5053760;28;20413;-57
2021/06/15 09:19:59;;;;;;;2.15;1.15;;;;;;;38.77;26.20;101764.72;5054354;28;20056;-58
2021/06/15 09:22:33;;;;;;;1.27;0.80;;;;;;;38.78;26.89;101761.59;5036619;28;20025;-58
2021/06/15 09:24:59;;;;;;;2.45;1.38;;;;;;;38.92;27.02;101765.41;5054269;28;20020;-58
2021/06/15 09:27:35;;;;;;;3.75;1.90;;;;;;;39.06;25.72;101779.53;5036589;28;20372;-58
2021/06/15 09:30:04;;;;;;;1.40;0.80;;;;;;;39.11;26.04;101765.50;5036152;28;20028;-57
2021/06/15 09:32:41;;;;;;;1.50;1.17;;;;;;;39.20;26.34;101766.53;5053898;28;20025;-57
2021/06/15 09:35:11;;;;;;;4.57;1.20;;;;;;;39.29;25.20;101766.72;5054160;28;20033;-58
2021/06/15 09:37:40;;;;;;;1.73;1.00;;;;;;;39.31;26.17;101768.06;5054022;28;20025;-58
2021/06/15 09:40:26;;;;;;;2.60;0.77;;;;;;;39.21;25.06;101768.22;5054662;28;20033;-58
2021/06/15 09:43:20;;;;;;;8.77;1.13;;;;;;;39.06;26.13;101768.34;5054406;28;20376;-57
2021/06/15 09:45:48;;;;;;;2.75;0.90;;;;;;;39.07;25.28;101770.00;5036611;28;20087;-58
2021/06/15 09:48:20;;;;;;;4.80;1.30;;;;;;;39.19;25.95;101769.59;5053834;28;20025;-58
2021/06/15 09:50:45;;;;;;;;;;;;;;;39.31;26.31;101770.06;5054067;28;20043;-58
2021/06/15 09:53:37;;;;;;;6.97;1.30;;;;;;;39.44;25.36;101772.16;5035859;28;19917;-58
2021/06/15 09:56:07;;;;;;;1.85;1.00;;;;;;;39.42;25.45;101771.63;5022696;28;20630;-57
2021/06/15 09:58:43;;;;;;;2.92;1.00;;;;;;;39.44;24.96;101774.94;5036148;28;20111;-58
2021/06/15 10:01:10;;;;;;;4.50;1.00;;;;;;;39.62;25.92;101776.16;5051973;28;20048;-58
2021/06/15 10:03:36;;;;;;;4.85;1.27;;;;;;;39.82;24.91;101767.47;5054052;28;20029;-58
2021/06/15 10:06:03;;;;;;;5.75;5.22;;;;;;;39.94;24.74;101762.25;5053528;28;20031;-57
2021/06/15 10:08:44;;;;;;;27.02;25.83;;;;;;;40.20;24.43;101776.78;5053353;28;20037;-58
2021/06/15 10:11:10;;;;;;;9.25;8.75;;;;;;;40.43;24.12;101771.03;5053703;28;20025;-58
2021/06/15 10:13:37;;;;;;;3.50;1.40;;;;;;;40.95;24.33;101777.50;5053616;28;20039;-58
2021/06/15 10:16:02;;;;;;;2.05;1.70;;;;;;;41.37;24.17;101766.00;5036101;28;20044;-58
2021/06/15 10:18:28;;;;;;;6.05;1.17;;;;;;;41.50;23.13;101770.78;5052230;28;20467;-58
2021/06/15 10:20:53;;;;;;;4.97;1.20;;;;;;;41.39;23.90;101772.16;5053656;28;20492;-58
2021/06/15 10:23:19;;;;;;;2.47;1.27;;;;;;;41.25;23.30;101774.09;5053571;28;20099;-58
2021/06/15 10:25:44;;;;;;;3.92;0.98;;;;;;;41.16;23.57;101770.34;5053469;28;20021;-58
2021/06/15 10:28:11;;;;;;;1.30;0.85;;;;;;;40.95;23.79;101767.09;5053272;28;20100;-58
2021/06/15 10:30:37;;;;;;;3.92;1.42;;;;;;;40.83;23.83;101775.16;5057638;28;20082;-58
2021/06/15 10:33:15;;;;;;;2.10;1.42;;;;;;;40.92;23.03;101772.50;5039384;28;20021;-58
2021/06/15 10:35:45;;;;;;;2.20;1.10;;;;;;;40.82;22.71;101767.84;5057387;28;20021;-58
2021/06/15 10:38:25;;;;;;;2.13;1.23;;;;;;;40.87;23.16;101758.50;5057419;28;20063;-58
2021/06/15 10:40:52;;;;;;;5.78;1.50;;;;;;;41.08;23.07;101765.44;5057087;28;20094;-58
2021/06/15 10:43:21;;;;;;;1.70;1.60;;;;;;;41.22;22.46;101749.41;5039705;28;20025;-58
2021/06/15 10:45:52;;;;;;;2.33;1.65;;;;;;;41.45;22.50;101756.84;5057298;28;20025;-58
2021/06/15 10:48:17;;;;;;;3.20;1.88;;;;;;;41.63;22.72;101750.22;5057586;28;20053;-58
2021/06/15 10:50:48;;;;;;;1.40;1.40;;;;;;;41.85;22.50;101748.66;5039100;28;20040;-58
2021/06/15 10:53:15;;;;;;;3.70;1.30;;;;;;;42.07;22.23;101748.72;5039542;28;20025;-58
2021/06/15 10:55:40;;;;;;;3.72;1.52;;;;;;;42.32;21.97;101745.28;5057613;28;20377;-58
2021/06/15 10:58:06;;;;;;;2.92;1.20;;;;;;;42.50;22.03;101752.69;5057122;28;20035;-58
2021/06/15 11:00:42;;;;;;;2.13;1.10;;;;;;;42.66;21.71;101751.19;5039051;28;20556;-58
2021/06/15 11:03:16;;;;;;;1.33;0.95;;;;;;;42.67;21.48;101752.84;5037976;28;20052;-58
2021/06/15 11:05:54;;;;;;;1.73;1.10;;;;;;;42.84;21.38;101747.31;5036066;28;20021;-58
2021/06/15 11:08:30;;;;;;;4.22;1.20;;;;;;;42.98;21.30;101758.53;5037169;28;20025;-58
2021/06/15 11:11:05;;;;;;;1.90;0.98;;;;;;;42.99;21.15;101746.09;5019511;28;20363;-59
2021/06/15 11:13:51;;;;;;;2.65;1.20;;;;;;;42.93;21.15;101753.84;5037282;28;20030;-58
2021/06/15 11:16:32;;;;;;;3.42;1.00;;;;;;;42.92;21.03;101752.16;5036819;28;20120;-58
2021/06/15 11:19:09;;;;;;;2.10;0.80;;;;;;;43.04;21.03;101750.75;5036700;28;20021;-58
2021/06/15 11:21:47;;;;;;;2.53;1.10;;;;;;;43.13;21.04;101748.81;5035212;28;20116;-58
2021/06/15 11:24:39;;;;;;;2.45;1.00;;;;;;;43.21;20.91;101750.84;5036556;28;20366;-58
2021/06/15 11:27:06;;;;;;;1.00;0.90;;;;;;;43.23;21.36;101742.84;5018617;28;20394;-58